sensor_id;sensor_type;location;lat;lon;timestamp;P1;durP1;ratioP1;P2;durP2;ratioP2
52067;SDS011;60237;52.338;21.228;2023-12-22T00:01:08;50.72;;;4.63;;
52067;SDS011;60237;52.338;21.228;2023-12-22T00:03:35;67.28;;;5.43;;
52067;SDS011;60237;52.338;21.228;2023-12-22T00:06:02;33.03;;;3.55;;
52067;SDS011;60237;52.338;21.228;2023-12-22T00:08:29;38.97;;;3.88;;
52067;SDS011;60237;52.338;21.228;2023-12-22T00:10:56;54.75;;;4.15;;
52067;SDS011;60237;52.338;21.228;2023-12-22T00:13:22;47.35;;;4.60;;
52067;SDS011;60237;52.338;21.228;2023-12-22T00:15:50;69.65;;;5.65;;
52067;SDS011;60237;52.338;21.228;2023-12-22T00:18:16;61.90;;;5.20;;
52067;SDS011;60237;52.338;21.228;2023-12-22T00:20:43;50.40;;;3.97;;
52067;SDS011;60237;52.338;21.228;2023-12-22T00:23:11;44.20;;;4.45;;
52067;SDS011;60237;52.338;21.228;2023-12-22T00:25:38;48.28;;;4.18;;
52067;SDS011;60237;52.338;21.228;2023-12-22T00:28:04;80.13;;;6.28;;
52067;SDS011;60237;52.338;21.228;2023-12-22T00:30:31;38.53;;;4.18;;
52067;SDS011;60237;52.338;21.228;2023-12-22T00:32:58;50.33;;;5.65;;
52067;SDS011;60237;52.338;21.228;2023-12-22T00:35:25;62.90;;;4.85;;
52067;SDS011;60237;52.338;21.228;2023-12-22T00:37:51;34.10;;;3.70;;
52067;SDS011;60237;52.338;21.228;2023-12-22T00:40:19;66.45;;;5.18;;
52067;SDS011;60237;52.338;21.228;2023-12-22T00:42:46;52.88;;;4.90;;
52067;SDS011;60237;52.338;21.228;2023-12-22T00:45:12;57.65;;;5.90;;
52067;SDS011;60237;52.338;21.228;2023-12-22T00:47:39;32.22;;;3.33;;
52067;SDS011;60237;52.338;21.228;2023-12-22T00:50:06;37.30;;;5.53;;
52067;SDS011;60237;52.338;21.228;2023-12-22T00:52:34;59.70;;;5.05;;
52067;SDS011;60237;52.338;21.228;2023-12-22T00:55:01;46.90;;;4.13;;
52067;SDS011;60237;52.338;21.228;2023-12-22T00:57:28;42.10;;;4.63;;
52067;SDS011;60237;52.338;21.228;2023-12-22T00:59:54;47.10;;;4.55;;
52067;SDS011;60237;52.338;21.228;2023-12-22T01:02:21;40.75;;;3.90;;
52067;SDS011;60237;52.338;21.228;2023-12-22T01:04:47;97.70;;;7.88;;
52067;SDS011;60237;52.338;21.228;2023-12-22T01:07:14;51.85;;;5.32;;
52067;SDS011;60237;52.338;21.228;2023-12-22T01:09:42;26.33;;;3.67;;
52067;SDS011;60237;52.338;21.228;2023-12-22T01:12:08;79.13;;;6.10;;
52067;SDS011;60237;52.338;21.228;2023-12-22T01:14:37;47.85;;;4.70;;
52067;SDS011;60237;52.338;21.228;2023-12-22T01:17:04;54.38;;;4.45;;
52067;SDS011;60237;52.338;21.228;2023-12-22T01:19:31;68.05;;;5.45;;
52067;SDS011;60237;52.338;21.228;2023-12-22T01:21:57;53.78;;;4.72;;
52067;SDS011;60237;52.338;21.228;2023-12-22T01:24:24;54.25;;;5.40;;
52067;SDS011;60237;52.338;21.228;2023-12-22T01:26:51;88.35;;;8.90;;
52067;SDS011;60237;52.338;21.228;2023-12-22T01:29:18;57.58;;;5.78;;
52067;SDS011;60237;52.338;21.228;2023-12-22T01:31:44;107.88;;;8.52;;
52067;SDS011;60237;52.338;21.228;2023-12-22T01:39:42;21.38;;;3.15;;
52067;SDS011;60237;52.338;21.228;2023-12-22T01:42:08;63.15;;;5.47;;
52067;SDS011;60237;52.338;21.228;2023-12-22T01:44:35;72.72;;;6.30;;
52067;SDS011;60237;52.338;21.228;2023-12-22T01:47:02;24.83;;;2.72;;
52067;SDS011;60237;52.338;21.228;2023-12-22T01:49:29;68.40;;;5.93;;
52067;SDS011;60237;52.338;21.228;2023-12-22T01:51:56;88.05;;;7.40;;
52067;SDS011;60237;52.338;21.228;2023-12-22T01:54:23;34.72;;;3.38;;
52067;SDS011;60237;52.338;21.228;2023-12-22T01:56:50;61.20;;;5.72;;
52067;SDS011;60237;52.338;21.228;2023-12-22T01:59:16;92.05;;;7.65;;
52067;SDS011;60237;52.338;21.228;2023-12-22T02:01:43;133.55;;;9.88;;
52067;SDS011;60237;52.338;21.228;2023-12-22T02:04:13;80.25;;;5.57;;
52067;SDS011;60237;52.338;21.228;2023-12-22T02:06:40;84.47;;;6.50;;
52067;SDS011;60237;52.338;21.228;2023-12-22T02:09:07;45.22;;;4.65;;
52067;SDS011;60237;52.338;21.228;2023-12-22T02:11:34;65.70;;;5.78;;
52067;SDS011;60237;52.338;21.228;2023-12-22T02:14:00;82.43;;;6.82;;
52067;SDS011;60237;52.338;21.228;2023-12-22T02:18:55;85.50;;;6.38;;
52067;SDS011;60237;52.338;21.228;2023-12-22T02:21:21;101.60;;;7.55;;
52067;SDS011;60237;52.338;21.228;2023-12-22T02:23:48;46.38;;;4.80;;
52067;SDS011;60237;52.338;21.228;2023-12-22T02:26:34;53.47;;;5.05;;
52067;SDS011;60237;52.338;21.228;2023-12-22T02:29:02;20.55;;;3.28;;
52067;SDS011;60237;52.338;21.228;2023-12-22T02:31:36;93.25;;;6.32;;
52067;SDS011;60237;52.338;21.228;2023-12-22T02:34:05;74.75;;;5.28;;
52067;SDS011;60237;52.338;21.228;2023-12-22T02:36:34;40.65;;;4.15;;
52067;SDS011;60237;52.338;21.228;2023-12-22T02:39:02;42.88;;;3.85;;
52067;SDS011;60237;52.338;21.228;2023-12-22T02:41:30;93.45;;;6.63;;
52067;SDS011;60237;52.338;21.228;2023-12-22T02:43:57;50.05;;;4.47;;
52067;SDS011;60237;52.338;21.228;2023-12-22T02:46:23;60.42;;;6.50;;
52067;SDS011;60237;52.338;21.228;2023-12-22T02:48:50;112.97;;;7.97;;
52067;SDS011;60237;52.338;21.228;2023-12-22T02:51:17;61.17;;;5.18;;
52067;SDS011;60237;52.338;21.228;2023-12-22T02:53:43;52.40;;;4.57;;
52067;SDS011;60237;52.338;21.228;2023-12-22T02:56:10;78.00;;;6.88;;
52067;SDS011;60237;52.338;21.228;2023-12-22T02:58:36;50.72;;;4.45;;
52067;SDS011;60237;52.338;21.228;2023-12-22T03:01:03;36.65;;;3.88;;
52067;SDS011;60237;52.338;21.228;2023-12-22T03:03:29;78.45;;;5.50;;
52067;SDS011;60237;52.338;21.228;2023-12-22T03:05:56;63.92;;;5.38;;
52067;SDS011;60237;52.338;21.228;2023-12-22T03:08:23;77.85;;;6.60;;
52067;SDS011;60237;52.338;21.228;2023-12-22T03:10:49;69.07;;;6.68;;
52067;SDS011;60237;52.338;21.228;2023-12-22T03:13:16;45.08;;;4.28;;
52067;SDS011;60237;52.338;21.228;2023-12-22T03:15:42;47.58;;;4.53;;
52067;SDS011;60237;52.338;21.228;2023-12-22T03:18:09;96.30;;;7.05;;
52067;SDS011;60237;52.338;21.228;2023-12-22T03:47:54;140.98;;;10.85;;
52067;SDS011;60237;52.338;21.228;2023-12-22T03:50:21;83.90;;;6.72;;
52067;SDS011;60237;52.338;21.228;2023-12-22T03:52:47;85.50;;;6.18;;
52067;SDS011;60237;52.338;21.228;2023-12-22T03:55:14;169.77;;;13.82;;
52067;SDS011;60237;52.338;21.228;2023-12-22T03:57:41;215.48;;;17.35;;
52067;SDS011;60237;52.338;21.228;2023-12-22T04:00:08;44.13;;;4.63;;
52067;SDS011;60237;52.338;21.228;2023-12-22T04:02:35;160.20;;;12.98;;
52067;SDS011;60237;52.338;21.228;2023-12-22T04:05:02;32.65;;;4.00;;
52067;SDS011;60237;52.338;21.228;2023-12-22T04:07:29;58.22;;;6.15;;
52067;SDS011;60237;52.338;21.228;2023-12-22T04:09:56;83.15;;;6.72;;
52067;SDS011;60237;52.338;21.228;2023-12-22T04:12:22;69.70;;;5.80;;
52067;SDS011;60237;52.338;21.228;2023-12-22T04:14:49;136.98;;;11.57;;
52067;SDS011;60237;52.338;21.228;2023-12-22T04:17:16;160.35;;;12.82;;
52067;SDS011;60237;52.338;21.228;2023-12-22T04:19:42;76.85;;;7.00;;
52067;SDS011;60237;52.338;21.228;2023-12-22T04:22:09;82.50;;;7.88;;
52067;SDS011;60237;52.338;21.228;2023-12-22T04:24:36;81.35;;;6.63;;
52067;SDS011;60237;52.338;21.228;2023-12-22T04:27:03;95.72;;;8.48;;
52067;SDS011;60237;52.338;21.228;2023-12-22T04:29:29;17.58;;;3.35;;
52067;SDS011;60237;52.338;21.228;2023-12-22T04:31:56;99.30;;;7.22;;
52067;SDS011;60237;52.338;21.228;2023-12-22T04:34:23;96.95;;;8.55;;
52067;SDS011;60237;52.338;21.228;2023-12-22T04:36:50;53.72;;;5.50;;
52067;SDS011;60237;52.338;21.228;2023-12-22T04:39:16;85.32;;;7.22;;
52067;SDS011;60237;52.338;21.228;2023-12-22T04:41:43;95.80;;;8.63;;
52067;SDS011;60237;52.338;21.228;2023-12-22T04:44:10;49.92;;;5.07;;
52067;SDS011;60237;52.338;21.228;2023-12-22T04:46:38;86.22;;;6.43;;
52067;SDS011;60237;52.338;21.228;2023-12-22T04:49:05;36.80;;;4.20;;
52067;SDS011;60237;52.338;21.228;2023-12-22T04:51:32;44.28;;;4.60;;
52067;SDS011;60237;52.338;21.228;2023-12-22T04:53:59;84.10;;;6.65;;
52067;SDS011;60237;52.338;21.228;2023-12-22T04:56:26;122.57;;;9.68;;
52067;SDS011;60237;52.338;21.228;2023-12-22T04:58:53;131.48;;;10.35;;
52067;SDS011;60237;52.338;21.228;2023-12-22T05:01:19;242.35;;;19.83;;
52067;SDS011;60237;52.338;21.228;2023-12-22T05:03:47;204.48;;;15.50;;
52067;SDS011;60237;52.338;21.228;2023-12-22T05:06:14;173.18;;;14.73;;
52067;SDS011;60237;52.338;21.228;2023-12-22T05:08:41;162.95;;;12.82;;
52067;SDS011;60237;52.338;21.228;2023-12-22T05:11:07;79.75;;;7.05;;
52067;SDS011;60237;52.338;21.228;2023-12-22T05:13:34;32.85;;;4.03;;
52067;SDS011;60237;52.338;21.228;2023-12-22T05:16:01;68.88;;;5.75;;
52067;SDS011;60237;52.338;21.228;2023-12-22T05:18:28;96.15;;;7.78;;
52067;SDS011;60237;52.338;21.228;2023-12-22T05:20:55;96.72;;;10.27;;
52067;SDS011;60237;52.338;21.228;2023-12-22T05:23:21;82.55;;;7.43;;
52067;SDS011;60237;52.338;21.228;2023-12-22T05:25:48;129.65;;;10.32;;
52067;SDS011;60237;52.338;21.228;2023-12-22T05:28:15;58.90;;;5.80;;
52067;SDS011;60237;52.338;21.228;2023-12-22T05:30:41;83.32;;;9.00;;
52067;SDS011;60237;52.338;21.228;2023-12-22T05:33:08;78.35;;;8.02;;
52067;SDS011;60237;52.338;21.228;2023-12-22T05:35:35;167.60;;;15.00;;
52067;SDS011;60237;52.338;21.228;2023-12-22T05:38:06;58.78;;;5.53;;
52067;SDS011;60237;52.338;21.228;2023-12-22T05:40:33;79.85;;;7.80;;
52067;SDS011;60237;52.338;21.228;2023-12-22T05:42:59;46.28;;;3.92;;
52067;SDS011;60237;52.338;21.228;2023-12-22T05:45:26;68.80;;;6.63;;
52067;SDS011;60237;52.338;21.228;2023-12-22T05:47:53;94.55;;;8.73;;
52067;SDS011;60237;52.338;21.228;2023-12-22T05:50:20;279.85;;;22.27;;
52067;SDS011;60237;52.338;21.228;2023-12-22T05:52:47;356.88;;;28.88;;
52067;SDS011;60237;52.338;21.228;2023-12-22T05:55:14;329.25;;;25.83;;
52067;SDS011;60237;52.338;21.228;2023-12-22T05:57:40;384.58;;;31.92;;
52067;SDS011;60237;52.338;21.228;2023-12-22T06:00:07;315.25;;;25.67;;
52067;SDS011;60237;52.338;21.228;2023-12-22T06:02:36;356.83;;;29.40;;
52067;SDS011;60237;52.338;21.228;2023-12-22T06:05:03;391.95;;;31.33;;
52067;SDS011;60237;52.338;21.228;2023-12-22T06:07:30;209.55;;;18.42;;
52067;SDS011;60237;52.338;21.228;2023-12-22T06:09:56;550.20;;;46.00;;
52067;SDS011;60237;52.338;21.228;2023-12-22T06:12:23;525.10;;;45.50;;
52067;SDS011;60237;52.338;21.228;2023-12-22T06:14:49;532.72;;;45.47;;
52067;SDS011;60237;52.338;21.228;2023-12-22T06:17:16;600.78;;;51.47;;
52067;SDS011;60237;52.338;21.228;2023-12-22T06:19:43;225.95;;;19.77;;
52067;SDS011;60237;52.338;21.228;2023-12-22T06:22:09;437.85;;;36.60;;
52067;SDS011;60237;52.338;21.228;2023-12-22T06:24:36;346.70;;;27.70;;
52067;SDS011;60237;52.338;21.228;2023-12-22T06:27:03;321.92;;;25.98;;
52067;SDS011;60237;52.338;21.228;2023-12-22T06:29:29;315.13;;;26.02;;
52067;SDS011;60237;52.338;21.228;2023-12-22T06:31:57;262.05;;;21.88;;
52067;SDS011;60237;52.338;21.228;2023-12-22T06:34:24;221.13;;;17.70;;
52067;SDS011;60237;52.338;21.228;2023-12-22T06:36:52;243.23;;;19.02;;
52067;SDS011;60237;52.338;21.228;2023-12-22T06:39:19;201.98;;;15.82;;
52067;SDS011;60237;52.338;21.228;2023-12-22T06:41:46;275.15;;;21.70;;
52067;SDS011;60237;52.338;21.228;2023-12-22T06:44:13;260.83;;;21.30;;
52067;SDS011;60237;52.338;21.228;2023-12-22T06:46:40;183.40;;;15.50;;
52067;SDS011;60237;52.338;21.228;2023-12-22T06:49:07;410.73;;;34.65;;
52067;SDS011;60237;52.338;21.228;2023-12-22T06:51:34;217.75;;;19.23;;
52067;SDS011;60237;52.338;21.228;2023-12-22T06:54:02;219.10;;;18.52;;
52067;SDS011;60237;52.338;21.228;2023-12-22T06:56:30;360.60;;;28.60;;
52067;SDS011;60237;52.338;21.228;2023-12-22T06:58:57;262.63;;;22.05;;
52067;SDS011;60237;52.338;21.228;2023-12-22T07:01:28;115.35;;;9.07;;
52067;SDS011;60237;52.338;21.228;2023-12-22T07:03:55;429.55;;;36.88;;
52067;SDS011;60237;52.338;21.228;2023-12-22T07:06:24;170.15;;;14.00;;
52067;SDS011;60237;52.338;21.228;2023-12-22T07:08:56;208.73;;;16.73;;
52067;SDS011;60237;52.338;21.228;2023-12-22T07:11:23;241.82;;;19.40;;
52067;SDS011;60237;52.338;21.228;2023-12-22T07:14:00;127.82;;;10.98;;
52067;SDS011;60237;52.338;21.228;2023-12-22T07:16:27;90.03;;;7.50;;
52067;SDS011;60237;52.338;21.228;2023-12-22T07:18:53;207.75;;;17.25;;
52067;SDS011;60237;52.338;21.228;2023-12-22T07:21:20;146.70;;;12.18;;
52067;SDS011;60237;52.338;21.228;2023-12-22T07:23:47;108.63;;;8.65;;
52067;SDS011;60237;52.338;21.228;2023-12-22T07:26:14;701.85;;;63.40;;
52067;SDS011;60237;52.338;21.228;2023-12-22T07:28:45;76.10;;;6.40;;
52067;SDS011;60237;52.338;21.228;2023-12-22T07:31:14;124.22;;;9.98;;
52067;SDS011;60237;52.338;21.228;2023-12-22T07:33:40;49.47;;;3.72;;
52067;SDS011;60237;52.338;21.228;2023-12-22T07:36:07;260.10;;;20.95;;
52067;SDS011;60237;52.338;21.228;2023-12-22T07:38:34;152.65;;;12.05;;
52067;SDS011;60237;52.338;21.228;2023-12-22T07:41:00;338.45;;;26.75;;
52067;SDS011;60237;52.338;21.228;2023-12-22T07:43:27;66.03;;;5.57;;
52067;SDS011;60237;52.338;21.228;2023-12-22T07:45:56;84.13;;;7.18;;
52067;SDS011;60237;52.338;21.228;2023-12-22T07:48:23;1002.53;;;92.82;;
52067;SDS011;60237;52.338;21.228;2023-12-22T07:50:51;940.00;;;85.72;;
52067;SDS011;60237;52.338;21.228;2023-12-22T07:53:17;981.83;;;90.55;;
52067;SDS011;60237;52.338;21.228;2023-12-22T07:55:44;917.58;;;83.75;;
52067;SDS011;60237;52.338;21.228;2023-12-22T07:58:11;921.85;;;84.00;;
52067;SDS011;60237;52.338;21.228;2023-12-22T08:00:37;953.53;;;87.30;;
52067;SDS011;60237;52.338;21.228;2023-12-22T08:03:04;933.30;;;85.45;;
52067;SDS011;60237;52.338;21.228;2023-12-22T08:05:30;936.15;;;85.75;;
52067;SDS011;60237;52.338;21.228;2023-12-22T08:07:58;998.55;;;93.15;;
52067;SDS011;60237;52.338;21.228;2023-12-22T08:10:25;933.50;;;85.28;;
52067;SDS011;60237;52.338;21.228;2023-12-22T08:12:53;957.67;;;88.80;;
52067;SDS011;60237;52.338;21.228;2023-12-22T08:15:20;970.88;;;90.53;;
52067;SDS011;60237;52.338;21.228;2023-12-22T08:17:58;1013.00;;;93.38;;
52067;SDS011;60237;52.338;21.228;2023-12-22T08:20:25;960.22;;;88.88;;
52067;SDS011;60237;52.338;21.228;2023-12-22T08:22:58;950.75;;;87.07;;
52067;SDS011;60237;52.338;21.228;2023-12-22T08:25:30;944.43;;;85.73;;
52067;SDS011;60237;52.338;21.228;2023-12-22T08:27:57;988.42;;;91.18;;
52067;SDS011;60237;52.338;21.228;2023-12-22T08:30:24;949.08;;;86.82;;
52067;SDS011;60237;52.338;21.228;2023-12-22T08:32:50;931.40;;;85.07;;
52067;SDS011;60237;52.338;21.228;2023-12-22T08:35:17;996.00;;;90.80;;
52067;SDS011;60237;52.338;21.228;2023-12-22T08:37:44;848.50;;;75.43;;
52067;SDS011;60237;52.338;21.228;2023-12-22T08:40:10;898.95;;;81.68;;
52067;SDS011;60237;52.338;21.228;2023-12-22T08:42:38;759.00;;;66.47;;
52067;SDS011;60237;52.338;21.228;2023-12-22T08:45:05;897.67;;;81.72;;
52067;SDS011;60237;52.338;21.228;2023-12-22T08:47:32;924.78;;;84.88;;
52067;SDS011;60237;52.338;21.228;2023-12-22T08:50:00;146.38;;;10.25;;
52067;SDS011;60237;52.338;21.228;2023-12-22T08:52:30;970.95;;;89.07;;
52067;SDS011;60237;52.338;21.228;2023-12-22T08:54:56;922.15;;;84.28;;
52067;SDS011;60237;52.338;21.228;2023-12-22T08:57:23;964.38;;;90.20;;
52067;SDS011;60237;52.338;21.228;2023-12-22T08:59:50;973.08;;;89.60;;
52067;SDS011;60237;52.338;21.228;2023-12-22T09:02:17;926.50;;;84.78;;
52067;SDS011;60237;52.338;21.228;2023-12-22T09:04:43;885.47;;;79.05;;
52067;SDS011;60237;52.338;21.228;2023-12-22T09:07:10;842.28;;;74.65;;
52067;SDS011;60237;52.338;21.228;2023-12-22T09:09:37;771.35;;;66.78;;
52067;SDS011;60237;52.338;21.228;2023-12-22T09:12:04;770.50;;;66.78;;
52067;SDS011;60237;52.338;21.228;2023-12-22T09:14:31;801.88;;;69.40;;
52067;SDS011;60237;52.338;21.228;2023-12-22T09:16:57;662.45;;;55.00;;
52067;SDS011;60237;52.338;21.228;2023-12-22T09:19:24;948.75;;;87.13;;
52067;SDS011;60237;52.338;21.228;2023-12-22T09:21:51;940.65;;;86.47;;
52067;SDS011;60237;52.338;21.228;2023-12-22T09:24:19;935.30;;;85.45;;
52067;SDS011;60237;52.338;21.228;2023-12-22T09:26:45;890.50;;;81.20;;
52067;SDS011;60237;52.338;21.228;2023-12-22T09:29:12;894.75;;;81.55;;
52067;SDS011;60237;52.338;21.228;2023-12-22T09:31:39;795.08;;;71.55;;
52067;SDS011;60237;52.338;21.228;2023-12-22T09:34:05;895.38;;;81.88;;
52067;SDS011;60237;52.338;21.228;2023-12-22T09:36:33;849.15;;;76.57;;
52067;SDS011;60237;52.338;21.228;2023-12-22T09:38:59;983.90;;;90.95;;
52067;SDS011;60237;52.338;21.228;2023-12-22T09:41:26;702.28;;;62.85;;
52067;SDS011;60237;52.338;21.228;2023-12-22T09:43:53;981.42;;;90.00;;
52067;SDS011;60237;52.338;21.228;2023-12-22T09:46:21;1105.00;;;105.78;;
52067;SDS011;60237;52.338;21.228;2023-12-22T09:48:49;1055.68;;;100.45;;
52067;SDS011;60237;52.338;21.228;2023-12-22T09:51:15;977.63;;;89.22;;
52067;SDS011;60237;52.338;21.228;2023-12-22T09:53:44;1123.07;;;107.00;;
52067;SDS011;60237;52.338;21.228;2023-12-22T09:56:11;932.10;;;85.13;;
52067;SDS011;60237;52.338;21.228;2023-12-22T09:58:38;1059.00;;;100.50;;
52067;SDS011;60237;52.338;21.228;2023-12-22T10:01:05;879.72;;;79.47;;
52067;SDS011;60237;52.338;21.228;2023-12-22T10:03:33;930.00;;;84.45;;
52067;SDS011;60237;52.338;21.228;2023-12-22T10:06:00;935.35;;;85.32;;
52067;SDS011;60237;52.338;21.228;2023-12-22T10:08:27;914.58;;;83.10;;
52067;SDS011;60237;52.338;21.228;2023-12-22T10:10:54;920.72;;;83.88;;
52067;SDS011;60237;52.338;21.228;2023-12-22T10:13:21;955.92;;;87.22;;
52067;SDS011;60237;52.338;21.228;2023-12-22T10:15:48;926.83;;;84.28;;
52067;SDS011;60237;52.338;21.228;2023-12-22T10:18:14;920.30;;;86.55;;
52067;SDS011;60237;52.338;21.228;2023-12-22T10:20:42;932.53;;;85.13;;
52067;SDS011;60237;52.338;21.228;2023-12-22T10:23:09;988.17;;;91.28;;
52067;SDS011;60237;52.338;21.228;2023-12-22T10:25:36;908.78;;;80.80;;
52067;SDS011;60237;52.338;21.228;2023-12-22T10:28:02;918.00;;;81.53;;
52067;SDS011;60237;52.338;21.228;2023-12-22T10:30:29;973.60;;;87.65;;
52067;SDS011;60237;52.338;21.228;2023-12-22T10:32:56;941.90;;;84.32;;
52067;SDS011;60237;52.338;21.228;2023-12-22T10:35:23;956.75;;;86.28;;
52067;SDS011;60237;52.338;21.228;2023-12-22T10:37:50;970.92;;;86.22;;
52067;SDS011;60237;52.338;21.228;2023-12-22T10:40:20;950.50;;;85.55;;
52067;SDS011;60237;52.338;21.228;2023-12-22T10:42:48;895.70;;;82.47;;
52067;SDS011;60237;52.338;21.228;2023-12-22T10:45:14;941.35;;;86.32;;
52067;SDS011;60237;52.338;21.228;2023-12-22T10:47:43;909.92;;;83.68;;
52067;SDS011;60237;52.338;21.228;2023-12-22T10:50:13;924.78;;;84.80;;
52067;SDS011;60237;52.338;21.228;2023-12-22T10:52:41;903.33;;;81.78;;
52067;SDS011;60237;52.338;21.228;2023-12-22T10:55:08;786.90;;;68.25;;
52067;SDS011;60237;52.338;21.228;2023-12-22T10:57:35;850.80;;;77.43;;
52067;SDS011;60237;52.338;21.228;2023-12-22T11:00:05;921.00;;;83.65;;
52067;SDS011;60237;52.338;21.228;2023-12-22T11:02:34;930.47;;;85.05;;
52067;SDS011;60237;52.338;21.228;2023-12-22T11:05:03;930.50;;;84.93;;
52067;SDS011;60237;52.338;21.228;2023-12-22T11:07:36;907.17;;;82.70;;
52067;SDS011;60237;52.338;21.228;2023-12-22T11:10:05;891.60;;;81.38;;
52067;SDS011;60237;52.338;21.228;2023-12-22T11:12:36;885.03;;;80.57;;
52067;SDS011;60237;52.338;21.228;2023-12-22T11:15:04;917.15;;;83.72;;
52067;SDS011;60237;52.338;21.228;2023-12-22T11:17:36;896.05;;;81.85;;
52067;SDS011;60237;52.338;21.228;2023-12-22T11:20:10;883.67;;;80.22;;
52067;SDS011;60237;52.338;21.228;2023-12-22T11:22:39;792.90;;;69.97;;
52067;SDS011;60237;52.338;21.228;2023-12-22T11:25:06;940.25;;;86.85;;
52067;SDS011;60237;52.338;21.228;2023-12-22T11:27:33;894.38;;;80.95;;
52067;SDS011;60237;52.338;21.228;2023-12-22T11:30:02;913.28;;;83.25;;
52067;SDS011;60237;52.338;21.228;2023-12-22T11:32:30;912.17;;;83.68;;
52067;SDS011;60237;52.338;21.228;2023-12-22T11:34:57;925.70;;;86.25;;
52067;SDS011;60237;52.338;21.228;2023-12-22T11:37:26;942.70;;;87.50;;
52067;SDS011;60237;52.338;21.228;2023-12-22T11:39:52;922.20;;;85.50;;
52067;SDS011;60237;52.338;21.228;2023-12-22T11:42:23;877.38;;;81.00;;
52067;SDS011;60237;52.338;21.228;2023-12-22T11:44:52;816.13;;;73.78;;
52067;SDS011;60237;52.338;21.228;2023-12-22T11:47:23;870.10;;;79.70;;
52067;SDS011;60237;52.338;21.228;2023-12-22T11:49:51;873.63;;;80.13;;
52067;SDS011;60237;52.338;21.228;2023-12-22T11:52:18;868.33;;;79.82;;
52067;SDS011;60237;52.338;21.228;2023-12-22T11:59:57;859.70;;;78.78;;
52067;SDS011;60237;52.338;21.228;2023-12-22T12:02:24;939.85;;;88.75;;
52067;SDS011;60237;52.338;21.228;2023-12-22T12:04:53;959.88;;;90.68;;
52067;SDS011;60237;52.338;21.228;2023-12-22T12:10:12;928.70;;;86.60;;
52067;SDS011;60237;52.338;21.228;2023-12-22T12:12:42;889.22;;;81.68;;
52067;SDS011;60237;52.338;21.228;2023-12-22T12:15:10;909.30;;;83.38;;
52067;SDS011;60237;52.338;21.228;2023-12-22T12:17:41;843.75;;;76.72;;
52067;SDS011;60237;52.338;21.228;2023-12-22T12:20:11;868.30;;;79.28;;
52067;SDS011;60237;52.338;21.228;2023-12-22T12:22:38;842.58;;;76.10;;
52067;SDS011;60237;52.338;21.228;2023-12-22T12:25:11;875.88;;;79.43;;
52067;SDS011;60237;52.338;21.228;2023-12-22T12:30:47;885.33;;;80.85;;
52067;SDS011;60237;52.338;21.228;2023-12-22T12:33:14;886.70;;;81.32;;
52067;SDS011;60237;52.338;21.228;2023-12-22T12:35:41;880.42;;;80.72;;
52067;SDS011;60237;52.338;21.228;2023-12-22T12:38:13;866.90;;;78.22;;
52067;SDS011;60237;52.338;21.228;2023-12-22T12:40:43;869.40;;;79.28;;
52067;SDS011;60237;52.338;21.228;2023-12-22T12:43:11;897.08;;;82.38;;
52067;SDS011;60237;52.338;21.228;2023-12-22T12:45:39;877.55;;;80.93;;
52067;SDS011;60237;52.338;21.228;2023-12-22T12:48:06;893.13;;;82.18;;
52067;SDS011;60237;52.338;21.228;2023-12-22T12:50:34;838.92;;;75.57;;
52067;SDS011;60237;52.338;21.228;2023-12-22T12:53:02;863.47;;;78.35;;
52067;SDS011;60237;52.338;21.228;2023-12-22T12:55:29;866.42;;;78.57;;
52067;SDS011;60237;52.338;21.228;2023-12-22T12:57:56;903.00;;;83.40;;
52067;SDS011;60237;52.338;21.228;2023-12-22T13:02:52;823.65;;;74.85;;
52067;SDS011;60237;52.338;21.228;2023-12-22T13:05:24;785.50;;;69.65;;
52067;SDS011;60237;52.338;21.228;2023-12-22T13:07:52;888.88;;;80.22;;
52067;SDS011;60237;52.338;21.228;2023-12-22T13:10:32;898.38;;;82.97;;
52067;SDS011;60237;52.338;21.228;2023-12-22T13:12:59;916.70;;;84.03;;
52067;SDS011;60237;52.338;21.228;2023-12-22T13:15:26;871.83;;;79.38;;
52067;SDS011;60237;52.338;21.228;2023-12-22T13:17:52;843.70;;;77.07;;
52067;SDS011;60237;52.338;21.228;2023-12-22T13:20:20;867.30;;;79.13;;
52067;SDS011;60237;52.338;21.228;2023-12-22T13:22:47;857.45;;;77.80;;
52067;SDS011;60237;52.338;21.228;2023-12-22T13:25:14;892.15;;;81.75;;
52067;SDS011;60237;52.338;21.228;2023-12-22T13:27:47;878.80;;;80.80;;
52067;SDS011;60237;52.338;21.228;2023-12-22T13:30:15;877.90;;;80.68;;
52067;SDS011;60237;52.338;21.228;2023-12-22T13:32:42;888.70;;;81.40;;
52067;SDS011;60237;52.338;21.228;2023-12-22T13:35:08;928.72;;;85.97;;
52067;SDS011;60237;52.338;21.228;2023-12-22T13:37:40;902.38;;;82.22;;
52067;SDS011;60237;52.338;21.228;2023-12-22T13:40:07;893.38;;;82.53;;
52067;SDS011;60237;52.338;21.228;2023-12-22T13:42:35;911.75;;;84.32;;
52067;SDS011;60237;52.338;21.228;2023-12-22T13:45:03;897.05;;;82.35;;
52067;SDS011;60237;52.338;21.228;2023-12-22T13:47:30;743.03;;;65.32;;
52067;SDS011;60237;52.338;21.228;2023-12-22T13:49:57;666.35;;;56.15;;
52067;SDS011;60237;52.338;21.228;2023-12-22T13:52:28;856.03;;;78.05;;
52067;SDS011;60237;52.338;21.228;2023-12-22T13:54:55;839.65;;;76.38;;
52067;SDS011;60237;52.338;21.228;2023-12-22T13:57:26;876.42;;;80.38;;
52067;SDS011;60237;52.338;21.228;2023-12-22T13:59:53;885.55;;;81.10;;
52067;SDS011;60237;52.338;21.228;2023-12-22T14:02:20;589.83;;;48.53;;
52067;SDS011;60237;52.338;21.228;2023-12-22T14:04:49;663.45;;;56.88;;
52067;SDS011;60237;52.338;21.228;2023-12-22T14:07:16;873.83;;;79.47;;
52067;SDS011;60237;52.338;21.228;2023-12-22T14:09:43;866.30;;;78.82;;
52067;SDS011;60237;52.338;21.228;2023-12-22T14:12:10;829.55;;;75.32;;
52067;SDS011;60237;52.338;21.228;2023-12-22T14:14:46;731.50;;;63.80;;
52067;SDS011;60237;52.338;21.228;2023-12-22T14:17:13;741.75;;;64.93;;
52067;SDS011;60237;52.338;21.228;2023-12-22T14:19:40;749.35;;;65.47;;
52067;SDS011;60237;52.338;21.228;2023-12-22T14:22:06;834.08;;;75.03;;
52067;SDS011;60237;52.338;21.228;2023-12-22T14:24:34;847.55;;;77.18;;
52067;SDS011;60237;52.338;21.228;2023-12-22T14:27:00;815.45;;;73.00;;
52067;SDS011;60237;52.338;21.228;2023-12-22T14:29:27;838.97;;;77.07;;
52067;SDS011;60237;52.338;21.228;2023-12-22T14:31:54;883.30;;;80.90;;
52067;SDS011;60237;52.338;21.228;2023-12-22T14:34:22;850.83;;;78.45;;
52067;SDS011;60237;52.338;21.228;2023-12-22T14:36:49;853.00;;;77.45;;
52067;SDS011;60237;52.338;21.228;2023-12-22T14:39:16;804.47;;;72.05;;
52067;SDS011;60237;52.338;21.228;2023-12-22T14:41:42;898.78;;;83.13;;
52067;SDS011;60237;52.338;21.228;2023-12-22T14:44:09;844.65;;;77.03;;
52067;SDS011;60237;52.338;21.228;2023-12-22T14:46:39;851.33;;;78.38;;
52067;SDS011;60237;52.338;21.228;2023-12-22T14:49:07;842.00;;;76.03;;
52067;SDS011;60237;52.338;21.228;2023-12-22T14:51:37;908.95;;;85.18;;
52067;SDS011;60237;52.338;21.228;2023-12-22T14:54:07;668.67;;;60.25;;